sensor_id;sensor_type;location;lat;lon;timestamp;temperature;humidity
23405;DHT22;11875;49.356;2.718;2022-11-30T00:00:02;7.80;99.90
23405;DHT22;11875;49.356;2.718;2022-11-30T00:02:29;7.90;99.90
23405;DHT22;11875;49.356;2.718;2022-11-30T00:04:54;7.80;99.90
23405;DHT22;11875;49.356;2.718;2022-11-30T00:07:20;7.80;99.90
23405;DHT22;11875;49.356;2.718;2022-11-30T00:09:45;7.80;99.90
23405;DHT22;11875;49.356;2.718;2022-11-30T00:12:11;7.80;99.90
23405;DHT22;11875;49.356;2.718;2022-11-30T00:14:37;7.80;99.90
23405;DHT22;11875;49.356;2.718;2022-11-30T00:17:02;7.80;99.90
23405;DHT22;11875;49.356;2.718;2022-11-30T00:19:28;7.80;99.90
23405;DHT22;11875;49.356;2.718;2022-11-30T00:21:53;7.70;99.90
23405;DHT22;11875;49.356;2.718;2022-11-30T00:24:19;7.70;99.90
23405;DHT22;11875;49.356;2.718;2022-11-30T00:26:44;7.80;99.90
23405;DHT22;11875;49.356;2.718;2022-11-30T00:29:10;7.80;99.90
23405;DHT22;11875;49.356;2.718;2022-11-30T00:31:36;7.80;99.90
23405;DHT22;11875;49.356;2.718;2022-11-30T00:34:01;7.80;99.90
23405;DHT22;11875;49.356;2.718;2022-11-30T00:36:27;7.80;99.90
23405;DHT22;11875;49.356;2.718;2022-11-30T00:38:52;7.80;99.90
23405;DHT22;11875;49.356;2.718;2022-11-30T00:41:19;7.80;99.90
23405;DHT22;11875;49.356;2.718;2022-11-30T00:43:45;7.90;99.90
23405;DHT22;11875;49.356;2.718;2022-11-30T00:46:11;7.80;99.90
23405;DHT22;11875;49.356;2.718;2022-11-30T00:48:37;7.80;99.90
23405;DHT22;11875;49.356;2.718;2022-11-30T00:51:04;8.00;99.90
23405;DHT22;11875;49.356;2.718;2022-11-30T00:53:30;7.90;99.90
23405;DHT22;11875;49.356;2.718;2022-11-30T00:55:55;7.80;99.90
23405;DHT22;11875;49.356;2.718;2022-11-30T00:58:21;7.80;99.90
23405;DHT22;11875;49.356;2.718;2022-11-30T01:00:47;7.80;99.90
23405;DHT22;11875;49.356;2.718;2022-11-30T01:03:12;7.80;99.90
23405;DHT22;11875;49.356;2.718;2022-11-30T01:05:38;7.80;99.90
23405;DHT22;11875;49.356;2.718;2022-11-30T01:08:06;7.80;99.90
23405;DHT22;11875;49.356;2.718;2022-11-30T01:10:36;7.80;99.90
23405;DHT22;11875;49.356;2.718;2022-11-30T01:13:02;7.80;99.90
23405;DHT22;11875;49.356;2.718;2022-11-30T01:15:29;7.80;99.90
23405;DHT22;11875;49.356;2.718;2022-11-30T01:17:54;7.80;99.90
23405;DHT22;11875;49.356;2.718;2022-11-30T01:20:20;7.80;99.90
23405;DHT22;11875;49.356;2.718;2022-11-30T01:22:46;7.80;99.90
23405;DHT22;11875;49.356;2.718;2022-11-30T01:25:11;8.00;99.90
23405;DHT22;11875;49.356;2.718;2022-11-30T01:27:37;7.90;99.90
23405;DHT22;11875;49.356;2.718;2022-11-30T01:30:03;7.90;99.90
23405;DHT22;11875;49.356;2.718;2022-11-30T01:32:29;7.90;99.90
23405;DHT22;11875;49.356;2.718;2022-11-30T01:34:55;7.90;99.90
23405;DHT22;11875;49.356;2.718;2022-11-30T01:37:20;8.10;99.90
23405;DHT22;11875;49.356;2.718;2022-11-30T01:39:46;8.10;99.90
23405;DHT22;11875;49.356;2.718;2022-11-30T01:42:14;8.10;99.90
23405;DHT22;11875;49.356;2.718;2022-11-30T01:47:34;7.90;99.90
23405;DHT22;11875;49.356;2.718;2022-11-30T01:52:39;7.90;99.90
23405;DHT22;11875;49.356;2.718;2022-11-30T01:55:13;7.80;99.90
23405;DHT22;11875;49.356;2.718;2022-11-30T01:57:50;7.80;99.90
23405;DHT22;11875;49.356;2.718;2022-11-30T02:00:17;7.90;99.90
23405;DHT22;11875;49.356;2.718;2022-11-30T02:03:11;7.90;99.90
23405;DHT22;11875;49.356;2.718;2022-11-30T02:05:40;7.80;99.90
23405;DHT22;11875;49.356;2.718;2022-11-30T02:08:08;7.90;99.90
23405;DHT22;11875;49.356;2.718;2022-11-30T02:10:40;8.40;99.90
23405;DHT22;11875;49.356;2.718;2022-11-30T02:16:29;7.60;99.90
23405;DHT22;11875;49.356;2.718;2022-11-30T02:29:38;7.70;99.90
23405;DHT22;11875;49.356;2.718;2022-11-30T02:32:20;7.80;99.90
23405;DHT22;11875;49.356;2.718;2022-11-30T02:34:48;7.80;99.90
23405;DHT22;11875;49.356;2.718;2022-11-30T02:37:14;7.80;99.90
23405;DHT22;11875;49.356;2.718;2022-11-30T02:39:42;7.70;99.90
23405;DHT22;11875;49.356;2.718;2022-11-30T02:42:12;7.70;99.90
23405;DHT22;11875;49.356;2.718;2022-11-30T02:44:39;7.70;99.90
23405;DHT22;11875;49.356;2.718;2022-11-30T02:47:26;7.70;99.90
23405;DHT22;11875;49.356;2.718;2022-11-30T02:50:01;7.90;99.90
23405;DHT22;11875;49.356;2.718;2022-11-30T02:52:29;7.90;99.90
23405;DHT22;11875;49.356;2.718;2022-11-30T02:55:04;7.90;99.90
23405;DHT22;11875;49.356;2.718;2022-11-30T02:57:31;8.00;99.90
23405;DHT22;11875;49.356;2.718;2022-11-30T02:59:57;8.00;99.90
23405;DHT22;11875;49.356;2.718;2022-11-30T03:02:23;8.00;99.90
23405;DHT22;11875;49.356;2.718;2022-11-30T03:04:49;8.00;99.90
23405;DHT22;11875;49.356;2.718;2022-11-30T03:07:14;8.00;99.90
23405;DHT22;11875;49.356;2.718;2022-11-30T03:09:40;8.00;99.90
23405;DHT22;11875;49.356;2.718;2022-11-30T03:12:06;7.80;99.90
23405;DHT22;11875;49.356;2.718;2022-11-30T03:14:31;7.70;99.90
23405;DHT22;11875;49.356;2.718;2022-11-30T03:16:57;7.40;99.90
23405;DHT22;11875;49.356;2.718;2022-11-30T03:19:22;7.50;99.90
23405;DHT22;11875;49.356;2.718;2022-11-30T03:21:48;7.50;99.90
23405;DHT22;11875;49.356;2.718;2022-11-30T03:24:14;7.70;99.90
23405;DHT22;11875;49.356;2.718;2022-11-30T03:26:39;7.80;99.90
23405;DHT22;11875;49.356;2.718;2022-11-30T03:29:05;7.70;99.90
23405;DHT22;11875;49.356;2.718;2022-11-30T03:31:30;7.80;99.90
23405;DHT22;11875;49.356;2.718;2022-11-30T03:33:56;7.80;99.90
23405;DHT22;11875;49.356;2.718;2022-11-30T03:36:22;7.90;99.90
23405;DHT22;11875;49.356;2.718;2022-11-30T03:38:47;7.90;99.90
23405;DHT22;11875;49.356;2.718;2022-11-30T03:41:15;8.00;99.90
23405;DHT22;11875;49.356;2.718;2022-11-30T03:43:44;8.00;99.90
23405;DHT22;11875;49.356;2.718;2022-11-30T03:46:10;8.10;99.90
23405;DHT22;11875;49.356;2.718;2022-11-30T03:48:36;8.10;99.90
23405;DHT22;11875;49.356;2.718;2022-11-30T03:51:03;8.10;99.90
23405;DHT22;11875;49.356;2.718;2022-11-30T03:53:30;8.10;99.90
23405;DHT22;11875;49.356;2.718;2022-11-30T03:56:01;8.10;99.90
23405;DHT22;11875;49.356;2.718;2022-11-30T03:58:28;8.10;99.90
23405;DHT22;11875;49.356;2.718;2022-11-30T04:01:10;8.10;99.90
23405;DHT22;11875;49.356;2.718;2022-11-30T04:03:36;8.10;99.90
23405;DHT22;11875;49.356;2.718;2022-11-30T04:06:03;8.10;99.90
23405;DHT22;11875;49.356;2.718;2022-11-30T04:08:29;8.20;99.90
23405;DHT22;11875;49.356;2.718;2022-11-30T04:10:56;8.10;99.90
23405;DHT22;11875;49.356;2.718;2022-11-30T04:13:23;8.20;99.90
23405;DHT22;11875;49.356;2.718;2022-11-30T04:15:49;8.20;99.90
23405;DHT22;11875;49.356;2.718;2022-11-30T04:18:16;8.20;99.90
23405;DHT22;11875;49.356;2.718;2022-11-30T04:20:43;8.30;99.90
23405;DHT22;11875;49.356;2.718;2022-11-30T04:23:10;8.30;99.90
23405;DHT22;11875;49.356;2.718;2022-11-30T04:25:40;8.20;99.90
23405;DHT22;11875;49.356;2.718;2022-11-30T04:28:06;8.20;99.90
23405;DHT22;11875;49.356;2.718;2022-11-30T04:30:32;8.30;99.90
23405;DHT22;11875;49.356;2.718;2022-11-30T04:32:58;8.30;99.90
23405;DHT22;11875;49.356;2.718;2022-11-30T04:35:24;8.40;99.90
23405;DHT22;11875;49.356;2.718;2022-11-30T04:37:50;8.40;99.90
23405;DHT22;11875;49.356;2.718;2022-11-30T04:40:15;8.40;99.90
23405;DHT22;11875;49.356;2.718;2022-11-30T04:42:41;8.30;99.90
23405;DHT22;11875;49.356;2.718;2022-11-30T04:45:07;9.10;99.90
23405;DHT22;11875;49.356;2.718;2022-11-30T04:47:33;8.30;99.90
23405;DHT22;11875;49.356;2.718;2022-11-30T04:49:59;8.30;99.90
23405;DHT22;11875;49.356;2.718;2022-11-30T04:52:24;8.30;99.90
23405;DHT22;11875;49.356;2.718;2022-11-30T04:54:50;8.30;99.90
23405;DHT22;11875;49.356;2.718;2022-11-30T04:57:16;8.40;99.90
23405;DHT22;11875;49.356;2.718;2022-11-30T04:59:42;8.30;99.90
23405;DHT22;11875;49.356;2.718;2022-11-30T05:02:07;8.30;99.90
23405;DHT22;11875;49.356;2.718;2022-11-30T05:04:33;8.20;99.90
23405;DHT22;11875;49.356;2.718;2022-11-30T05:06:59;8.30;99.90
23405;DHT22;11875;49.356;2.718;2022-11-30T05:09:24;8.30;99.90
23405;DHT22;11875;49.356;2.718;2022-11-30T05:11:50;8.40;99.90
23405;DHT22;11875;49.356;2.718;2022-11-30T05:14:16;8.40;99.90
23405;DHT22;11875;49.356;2.718;2022-11-30T05:16:41;8.40;99.90
23405;DHT22;11875;49.356;2.718;2022-11-30T05:19:07;8.30;99.90
23405;DHT22;11875;49.356;2.718;2022-11-30T05:21:32;8.30;99.90
23405;DHT22;11875;49.356;2.718;2022-11-30T05:23:58;8.40;99.90
23405;DHT22;11875;49.356;2.718;2022-11-30T05:26:23;8.40;99.90
23405;DHT22;11875;49.356;2.718;2022-11-30T05:28:49;8.30;99.90
23405;DHT22;11875;49.356;2.718;2022-11-30T05:31:15;9.30;99.90
23405;DHT22;11875;49.356;2.718;2022-11-30T05:33:40;8.30;99.90
23405;DHT22;11875;49.356;2.718;2022-11-30T05:36:06;8.30;99.90
23405;DHT22;11875;49.356;2.718;2022-11-30T05:38:32;8.20;99.90
23405;DHT22;11875;49.356;2.718;2022-11-30T05:41:01;8.20;99.90
23405;DHT22;11875;49.356;2.718;2022-11-30T05:43:27;8.10;99.90
23405;DHT22;11875;49.356;2.718;2022-11-30T05:46:01;8.20;99.90
23405;DHT22;11875;49.356;2.718;2022-11-30T05:48:27;8.30;99.90
23405;DHT22;11875;49.356;2.718;2022-11-30T05:50:53;8.30;99.90
23405;DHT22;11875;49.356;2.718;2022-11-30T05:53:18;8.30;99.90
23405;DHT22;11875;49.356;2.718;2022-11-30T05:55:44;8.40;99.90
23405;DHT22;11875;49.356;2.718;2022-11-30T05:58:10;8.40;99.90
23405;DHT22;11875;49.356;2.718;2022-11-30T06:00:36;8.30;99.90
23405;DHT22;11875;49.356;2.718;2022-11-30T06:03:01;8.40;99.90
23405;DHT22;11875;49.356;2.718;2022-11-30T06:05:27;8.40;99.90
23405;DHT22;11875;49.356;2.718;2022-11-30T06:07:53;8.40;99.90
23405;DHT22;11875;49.356;2.718;2022-11-30T06:10:19;8.40;99.90
23405;DHT22;11875;49.356;2.718;2022-11-30T06:12:44;8.30;99.90
23405;DHT22;11875;49.356;2.718;2022-11-30T06:15:10;8.30;99.90
23405;DHT22;11875;49.356;2.718;2022-11-30T06:17:36;8.40;99.90
23405;DHT22;11875;49.356;2.718;2022-11-30T06:20:06;8.40;99.90
23405;DHT22;11875;49.356;2.718;2022-11-30T06:22:32;8.40;99.90
23405;DHT22;11875;49.356;2.718;2022-11-30T06:24:57;8.40;99.90
23405;DHT22;11875;49.356;2.718;2022-11-30T06:27:23;8.30;99.90
23405;DHT22;11875;49.356;2.718;2022-11-30T06:29:49;8.30;99.90
23405;DHT22;11875;49.356;2.718;2022-11-30T06:32:14;8.40;99.90
23405;DHT22;11875;49.356;2.718;2022-11-30T06:34:40;8.40;99.90
23405;DHT22;11875;49.356;2.718;2022-11-30T06:37:05;8.40;99.90
23405;DHT22;11875;49.356;2.718;2022-11-30T06:39:31;8.30;99.90
23405;DHT22;11875;49.356;2.718;2022-11-30T06:41:57;8.20;99.90
23405;DHT22;11875;49.356;2.718;2022-11-30T06:44:22;8.40;99.90
23405;DHT22;11875;49.356;2.718;2022-11-30T06:46:48;8.40;99.90
23405;DHT22;11875;49.356;2.718;2022-11-30T06:49:14;8.40;99.90
23405;DHT22;11875;49.356;2.718;2022-11-30T06:51:40;9.40;99.90
23405;DHT22;11875;49.356;2.718;2022-11-30T06:54:06;8.50;99.90
23405;DHT22;11875;49.356;2.718;2022-11-30T06:56:31;8.40;99.90
23405;DHT22;11875;49.356;2.718;2022-11-30T06:58:57;8.40;99.90
23405;DHT22;11875;49.356;2.718;2022-11-30T07:01:23;8.40;99.90
23405;DHT22;11875;49.356;2.718;2022-11-30T07:03:48;8.40;99.90
23405;DHT22;11875;49.356;2.718;2022-11-30T07:06:14;8.20;99.90
23405;DHT22;11875;49.356;2.718;2022-11-30T07:08:41;8.40;99.90
23405;DHT22;11875;49.356;2.718;2022-11-30T07:11:08;8.40;99.90
23405;DHT22;11875;49.356;2.718;2022-11-30T07:13:34;8.40;99.90
23405;DHT22;11875;49.356;2.718;2022-11-30T07:16:05;8.40;99.90
23405;DHT22;11875;49.356;2.718;2022-11-30T07:18:31;8.40;99.90
23405;DHT22;11875;49.356;2.718;2022-11-30T07:21:01;8.40;99.90
23405;DHT22;11875;49.356;2.718;2022-11-30T07:23:28;8.50;99.90
23405;DHT22;11875;49.356;2.718;2022-11-30T07:26:12;8.40;99.90
23405;DHT22;11875;49.356;2.718;2022-11-30T07:28:39;8.60;99.90
23405;DHT22;11875;49.356;2.718;2022-11-30T07:33:44;8.50;99.90
23405;DHT22;11875;49.356;2.718;2022-11-30T07:36:10;8.50;99.90
23405;DHT22;11875;49.356;2.718;2022-11-30T07:38:36;8.50;99.90
23405;DHT22;11875;49.356;2.718;2022-11-30T07:41:02;8.50;99.90
23405;DHT22;11875;49.356;2.718;2022-11-30T07:43:28;8.40;99.90
23405;DHT22;11875;49.356;2.718;2022-11-30T07:45:53;8.40;99.90
23405;DHT22;11875;49.356;2.718;2022-11-30T07:48:20;8.40;99.90
23405;DHT22;11875;49.356;2.718;2022-11-30T07:50:46;8.50;99.90
23405;DHT22;11875;49.356;2.718;2022-11-30T07:53:12;8.50;99.90
23405;DHT22;11875;49.356;2.718;2022-11-30T07:55:38;8.50;99.90
23405;DHT22;11875;49.356;2.718;2022-11-30T07:58:04;8.60;99.90
23405;DHT22;11875;49.356;2.718;2022-11-30T08:00:29;8.50;99.90
23405;DHT22;11875;49.356;2.718;2022-11-30T08:02:55;8.60;99.90
23405;DHT22;11875;49.356;2.718;2022-11-30T08:05:21;8.60;99.90
23405;DHT22;11875;49.356;2.718;2022-11-30T08:07:51;8.50;99.90
23405;DHT22;11875;49.356;2.718;2022-11-30T08:10:21;8.60;99.90
23405;DHT22;11875;49.356;2.718;2022-11-30T08:12:47;8.60;99.90
23405;DHT22;11875;49.356;2.718;2022-11-30T08:15:13;8.70;99.90
23405;DHT22;11875;49.356;2.718;2022-11-30T08:17:39;8.50;99.90
23405;DHT22;11875;49.356;2.718;2022-11-30T08:20:06;8.60;99.90
23405;DHT22;11875;49.356;2.718;2022-11-30T08:22:32;8.60;99.90
23405;DHT22;11875;49.356;2.718;2022-11-30T08:24:58;8.60;99.90
23405;DHT22;11875;49.356;2.718;2022-11-30T08:27:25;8.70;99.90
23405;DHT22;11875;49.356;2.718;2022-11-30T08:29:50;8.70;99.90
23405;DHT22;11875;49.356;2.718;2022-11-30T08:32:16;8.70;99.90
23405;DHT22;11875;49.356;2.718;2022-11-30T08:34:42;8.70;99.90
23405;DHT22;11875;49.356;2.718;2022-11-30T08:37:07;8.70;99.90
23405;DHT22;11875;49.356;2.718;2022-11-30T08:39:33;8.70;99.90
23405;DHT22;11875;49.356;2.718;2022-11-30T08:42:00;8.70;99.90
23405;DHT22;11875;49.356;2.718;2022-11-30T08:44:28;8.70;99.90
23405;DHT22;11875;49.356;2.718;2022-11-30T08:46:54;8.60;99.90
23405;DHT22;11875;49.356;2.718;2022-11-30T08:49:20;8.70;99.90
23405;DHT22;11875;49.356;2.718;2022-11-30T08:51:46;8.70;99.90
23405;DHT22;11875;49.356;2.718;2022-11-30T08:54:12;8.50;99.90
23405;DHT22;11875;49.356;2.718;2022-11-30T08:56:38;8.50;99.90
23405;DHT22;11875;49.356;2.718;2022-11-30T08:59:04;8.50;99.90
23405;DHT22;11875;49.356;2.718;2022-11-30T09:01:29;8.40;99.90
23405;DHT22;11875;49.356;2.718;2022-11-30T09:03:56;8.50;99.90
23405;DHT22;11875;49.356;2.718;2022-11-30T09:06:27;8.50;99.90
23405;DHT22;11875;49.356;2.718;2022-11-30T09:08:54;8.40;99.90
23405;DHT22;11875;49.356;2.718;2022-11-30T09:11:29;8.40;99.90
23405;DHT22;11875;49.356;2.718;2022-11-30T09:13:57;9.30;99.90
23405;DHT22;11875;49.356;2.718;2022-11-30T09:16:24;8.40;99.90
23405;DHT22;11875;49.356;2.718;2022-11-30T09:18:51;8.30;99.90
23405;DHT22;11875;49.356;2.718;2022-11-30T09:21:21;8.30;99.90
23405;DHT22;11875;49.356;2.718;2022-11-30T09:23:49;8.20;99.90
23405;DHT22;11875;49.356;2.718;2022-11-30T09:26:16;8.10;99.90
23405;DHT22;11875;49.356;2.718;2022-11-30T09:28:44;8.30;99.90
23405;DHT22;11875;49.356;2.718;2022-11-30T09:31:12;8.40;99.90
23405;DHT22;11875;49.356;2.718;2022-11-30T09:33:38;8.90;99.90
23405;DHT22;11875;49.356;2.718;2022-11-30T09:36:06;8.50;99.90
23405;DHT22;11875;49.356;2.718;2022-11-30T09:38:32;8.50;99.90
23405;DHT22;11875;49.356;2.718;2022-11-30T09:41:00;8.50;99.90
23405;DHT22;11875;49.356;2.718;2022-11-30T09:43:46;8.40;99.90
23405;DHT22;11875;49.356;2.718;2022-11-30T09:46:16;8.60;99.90
23405;DHT22;11875;49.356;2.718;2022-11-30T09:48:54;8.50;99.90
23405;DHT22;11875;49.356;2.718;2022-11-30T09:51:29;8.50;99.90
23405;DHT22;11875;49.356;2.718;2022-11-30T09:53:59;8.40;99.90
23405;DHT22;11875;49.356;2.718;2022-11-30T09:56:33;8.50;99.90
23405;DHT22;11875;49.356;2.718;2022-11-30T09:59:06;8.50;99.90
23405;DHT22;11875;49.356;2.718;2022-11-30T10:01:38;8.50;99.90
23405;DHT22;11875;49.356;2.718;2022-11-30T10:04:05;8.60;99.90
23405;DHT22;11875;49.356;2.718;2022-11-30T10:06:44;8.60;99.90
23405;DHT22;11875;49.356;2.718;2022-11-30T10:09:27;8.60;99.90
23405;DHT22;11875;49.356;2.718;2022-11-30T10:12:09;8.60;99.90
23405;DHT22;11875;49.356;2.718;2022-11-30T10:17:53;8.70;99.90
23405;DHT22;11875;49.356;2.718;2022-11-30T10:20:40;8.60;99.90
23405;DHT22;11875;49.356;2.718;2022-11-30T10:25:57;8.70;99.90
23405;DHT22;11875;49.356;2.718;2022-11-30T10:28:41;8.70;99.90
23405;DHT22;11875;49.356;2.718;2022-11-30T10:31:13;8.60;99.90
23405;DHT22;11875;49.356;2.718;2022-11-30T10:33:46;8.60;99.90
23405;DHT22;11875;49.356;2.718;2022-11-30T10:36:26;8.80;99.90
23405;DHT22;11875;49.356;2.718;2022-11-30T10:38:59;8.70;99.90
23405;DHT22;11875;49.356;2.718;2022-11-30T10:41:34;8.70;99.90
23405;DHT22;11875;49.356;2.718;2022-11-30T10:44:10;8.80;99.90
23405;DHT22;11875;49.356;2.718;2022-11-30T10:46:39;8.80;99.90
23405;DHT22;11875;49.356;2.718;2022-11-30T10:49:12;8.60;99.90
23405;DHT22;11875;49.356;2.718;2022-11-30T10:51:42;8.70;99.90
23405;DHT22;11875;49.356;2.718;2022-11-30T10:54:14;8.80;99.90
23405;DHT22;11875;49.356;2.718;2022-11-30T10:56:40;8.90;99.90
23405;DHT22;11875;49.356;2.718;2022-11-30T10:59:32;8.80;99.90
23405;DHT22;11875;49.356;2.718;2022-11-30T11:02:01;8.80;99.90
23405;DHT22;11875;49.356;2.718;2022-11-30T11:04:29;8.70;99.90
23405;DHT22;11875;49.356;2.718;2022-11-30T11:07:15;8.80;99.90
23405;DHT22;11875;49.356;2.718;2022-11-30T11:09:45;8.80;99.90
23405;DHT22;11875;49.356;2.718;2022-11-30T11:12:19;8.90;99.90
23405;DHT22;11875;49.356;2.718;2022-11-30T11:14:46;9.00;99.90
23405;DHT22;11875;49.356;2.718;2022-11-30T11:19:45;9.00;99.90
23405;DHT22;11875;49.356;2.718;2022-11-30T11:22:20;9.00;99.90
23405;DHT22;11875;49.356;2.718;2022-11-30T11:24:48;9.00;99.90
23405;DHT22;11875;49.356;2.718;2022-11-30T11:27:30;9.10;99.90
23405;DHT22;11875;49.356;2.718;2022-11-30T11:32:28;8.90;99.90
23405;DHT22;11875;49.356;2.718;2022-11-30T11:34:56;8.90;99.90
23405;DHT22;11875;49.356;2.718;2022-11-30T11:37:27;8.90;99.90
23405;DHT22;11875;49.356;2.718;2022-11-30T11:42:46;9.10;99.90
23405;DHT22;11875;49.356;2.718;2022-11-30T11:45:35;9.20;99.90
23405;DHT22;11875;49.356;2.718;2022-11-30T11:48:05;9.20;99.90
23405;DHT22;11875;49.356;2.718;2022-11-30T11:50:35;9.20;99.90
23405;DHT22;11875;49.356;2.718;2022-11-30T11:53:21;9.20;99.90
23405;DHT22;11875;49.356;2.718;2022-11-30T11:58:44;9.20;99.90
23405;DHT22;11875;49.356;2.718;2022-11-30T12:06:58;9.10;99.90
23405;DHT22;11875;49.356;2.718;2022-11-30T12:09:38;9.20;99.90
23405;DHT22;11875;49.356;2.718;2022-11-30T12:12:08;9.20;99.90
23405;DHT22;11875;49.356;2.718;2022-11-30T12:14:34;9.20;99.90
23405;DHT22;11875;49.356;2.718;2022-11-30T12:19:56;9.30;99.90
23405;DHT22;11875;49.356;2.718;2022-11-30T12:24:59;9.30;99.90
23405;DHT22;11875;49.356;2.718;2022-11-30T12:36:01;9.50;99.90
23405;DHT22;11875;49.356;2.718;2022-11-30T12:44:04;9.60;99.90
23405;DHT22;11875;49.356;2.718;2022-11-30T12:49:21;9.50;99.90
23405;DHT22;11875;49.356;2.718;2022-11-30T12:57:31;9.70;99.90
23405;DHT22;11875;49.356;2.718;2022-11-30T13:00:12;9.70;99.90
23405;DHT22;11875;49.356;2.718;2022-11-30T13:05:38;9.50;99.90
23405;DHT22;11875;49.356;2.718;2022-11-30T13:10:52;9.40;99.90
23405;DHT22;11875;49.356;2.718;2022-11-30T13:13:24;9.30;99.90
23405;DHT22;11875;49.356;2.718;2022-11-30T13:15:51;10.30;99.90
23405;DHT22;11875;49.356;2.718;2022-11-30T13:18:21;9.30;99.90
23405;DHT22;11875;49.356;2.718;2022-11-30T13:21:25;9.50;99.90
23405;DHT22;11875;49.356;2.718;2022-11-30T13:24:00;9.60;99.90
23405;DHT22;11875;49.356;2.718;2022-11-30T13:26:44;9.50;99.90
23405;DHT22;11875;49.356;2.718;2022-11-30T13:32:10;9.60;99.90
23405;DHT22;11875;49.356;2.718;2022-11-30T13:34:37;9.70;99.90
23405;DHT22;11875;49.356;2.718;2022-11-30T13:37:07;9.70;99.90
23405;DHT22;11875;49.356;2.718;2022-11-30T13:39:47;9.70;99.90
23405;DHT22;11875;49.356;2.718;2022-11-30T13:42:26;9.60;99.90
23405;DHT22;11875;49.356;2.718;2022-11-30T13:44:53;9.60;99.90
23405;DHT22;11875;49.356;2.718;2022-11-30T13:47:32;9.50;99.90
23405;DHT22;11875;49.356;2.718;2022-11-30T13:50:15;9.60;99.90
23405;DHT22;11875;49.356;2.718;2022-11-30T14:02:56;9.20;99.90
23405;DHT22;11875;49.356;2.718;2022-11-30T14:05:52;9.40;99.90
23405;DHT22;11875;49.356;2.718;2022-11-30T14:10:54;9.50;99.90
23405;DHT22;11875;49.356;2.718;2022-11-30T14:13:39;9.60;99.90
23405;DHT22;11875;49.356;2.718;2022-11-30T14:16:22;9.60;99.90
23405;DHT22;11875;49.356;2.718;2022-11-30T14:18:49;9.60;99.90
23405;DHT22;11875;49.356;2.718;2022-11-30T14:21:22;9.70;99.90
23405;DHT22;11875;49.356;2.718;2022-11-30T14:24:01;9.70;99.90
23405;DHT22;11875;49.356;2.718;2022-11-30T14:26:34;9.70;99.90
23405;DHT22;11875;49.356;2.718;2022-11-30T14:31:53;9.60;99.90
23405;DHT22;11875;49.356;2.718;2022-11-30T14:34:23;9.60;99.90
23405;DHT22;11875;49.356;2.718;2022-11-30T14:36:58;9.50;99.90
23405;DHT22;11875;49.356;2.718;2022-11-30T14:41:52;9.50;99.90
23405;DHT22;11875;49.356;2.718;2022-11-30T14:44:18;9.40;99.90
23405;DHT22;11875;49.356;2.718;2022-11-30T14:46:44;9.30;99.90
23405;DHT22;11875;49.356;2.718;2022-11-30T14:49:15;9.50;99.90
23405;DHT22;11875;49.356;2.718;2022-11-30T14:51:46;9.50;99.90
23405;DHT22;11875;49.356;2.718;2022-11-30T14:54:21;9.50;99.90
23405;DHT22;11875;49.356;2.718;2022-11-30T14:56:52;9.60;99.90
23405;DHT22;11875;49.356;2.718;2022-11-30T15:01:59;9.40;99.90
23405;DHT22;11875;49.356;2.718;2022-11-30T15:04:26;9.30;99.90
23405;DHT22;11875;49.356;2.718;2022-11-30T15:06:53;9.30;99.90
23405;DHT22;11875;49.356;2.718;2022-11-30T15:09:23;9.40;99.90
23405;DHT22;11875;49.356;2.718;2022-11-30T15:11:50;9.50;99.90
23405;DHT22;11875;49.356;2.718;2022-11-30T15:14:16;9.50;99.90
23405;DHT22;11875;49.356;2.718;2022-11-30T15:16:47;9.50;99.90
23405;DHT22;11875;49.356;2.718;2022-11-30T15:19:28;9.50;99.90
23405;DHT22;11875;49.356;2.718;2022-11-30T15:21:54;9.60;99.90
23405;DHT22;11875;49.356;2.718;2022-11-30T15:24:20;9.60;99.90
23405;DHT22;11875;49.356;2.718;2022-11-30T15:26:59;9.60;99.90
23405;DHT22;11875;49.356;2.718;2022-11-30T15:29:35;9.70;99.90
23405;DHT22;11875;49.356;2.718;2022-11-30T15:32:06;9.70;99.90
23405;DHT22;11875;49.356;2.718;2022-11-30T15:34:46;9.70;99.90
23405;DHT22;11875;49.356;2.718;2022-11-30T15:37:13;9.70;99.90
23405;DHT22;11875;49.356;2.718;2022-11-30T15:39:39;9.80;99.90
23405;DHT22;11875;49.356;2.718;2022-11-30T15:42:17;9.80;99.90
23405;DHT22;11875;49.356;2.718;2022-11-30T15:44:44;9.80;99.90
23405;DHT22;11875;49.356;2.718;2022-11-30T15:47:35;9.80;99.90
23405;DHT22;11875;49.356;2.718;2022-11-30T15:50:01;9.80;99.90
23405;DHT22;11875;49.356;2.718;2022-11-30T15:52:29;9.60;99.90
23405;DHT22;11875;49.356;2.718;2022-11-30T15:54:58;9.70;99.90
23405;DHT22;11875;49.356;2.718;2022-11-30T15:58:00;9.70;99.90
23405;DHT22;11875;49.356;2.718;2022-11-30T16:00:26;9.80;99.90
23405;DHT22;11875;49.356;2.718;2022-11-30T16:03:12;9.80;99.90
23405;DHT22;11875;49.356;2.718;2022-11-30T16:05:39;9.80;99.90
23405;DHT22;11875;49.356;2.718;2022-11-30T16:08:14;9.60;99.90
23405;DHT22;11875;49.356;2.718;2022-11-30T16:10:41;9.70;99.90
23405;DHT22;11875;49.356;2.718;2022-11-30T16:13:12;9.70;99.90
23405;DHT22;11875;49.356;2.718;2022-11-30T16:15:38;9.60;99.90
23405;DHT22;11875;49.356;2.718;2022-11-30T16:18:19;9.60;99.90
23405;DHT22;11875;49.356;2.718;2022-11-30T16:20:48;9.70;99.90
23405;DHT22;11875;49.356;2.718;2022-11-30T16:23:14;9.70;99.90
23405;DHT22;11875;49.356;2.718;2022-11-30T16:25:41;9.60;99.90
23405;DHT22;11875;49.356;2.718;2022-11-30T16:28:08;9.60;99.90
23405;DHT22;11875;49.356;2.718;2022-11-30T16:30:34;9.60;99.90
23405;DHT22;11875;49.356;2.718;2022-11-30T16:33:00;9.60;99.90
23405;DHT22;11875;49.356;2.718;2022-11-30T16:35:35;9.60;99.90
23405;DHT22;11875;49.356;2.718;2022-11-30T16:38:01;9.60;99.90
23405;DHT22;11875;49.356;2.718;2022-11-30T16:40:27;9.50;99.90
23405;DHT22;11875;49.356;2.718;2022-11-30T16:42:53;9.50;99.90
23405;DHT22;11875;49.356;2.718;2022-11-30T16:45:21;9.50;99.90
23405;DHT22;11875;49.356;2.718;2022-11-30T16:47:48;9.40;99.90
23405;DHT22;11875;49.356;2.718;2022-11-30T16:50:13;9.50;99.90
23405;DHT22;11875;49.356;2.718;2022-11-30T16:52:39;9.50;99.90
23405;DHT22;11875;49.356;2.718;2022-11-30T16:55:16;9.50;99.90
23405;DHT22;11875;49.356;2.718;2022-11-30T16:57:42;9.50;99.90
23405;DHT22;11875;49.356;2.718;2022-11-30T17:00:10;9.40;99.90
23405;DHT22;11875;49.356;2.718;2022-11-30T17:02:42;9.40;99.90
23405;DHT22;11875;49.356;2.718;2022-11-30T17:05:13;9.40;99.90
23405;DHT22;11875;49.356;2.718;2022-11-30T17:07:39;9.40;99.90
23405;DHT22;11875;49.356;2.718;2022-11-30T17:10:05;9.30;99.90
23405;DHT22;11875;49.356;2.718;2022-11-30T17:12:31;9.30;99.90
23405;DHT22;11875;49.356;2.718;2022-11-30T17:14:57;9.30;99.90
23405;DHT22;11875;49.356;2.718;2022-11-30T17:17:22;9.30;99.90
23405;DHT22;11875;49.356;2.718;2022-11-30T17:19:51;9.40;99.90
23405;DHT22;11875;49.356;2.718;2022-11-30T17:22:17;9.40;99.90
23405;DHT22;11875;49.356;2.718;2022-11-30T17:24:42;9.50;99.90
23405;DHT22;11875;49.356;2.718;2022-11-30T17:27:08;9.40;99.90
23405;DHT22;11875;49.356;2.718;2022-11-30T17:29:36;9.40;99.90
23405;DHT22;11875;49.356;2.718;2022-11-30T17:32:02;9.30;99.90
23405;DHT22;11875;49.356;2.718;2022-11-30T17:34:27;9.30;99.90
23405;DHT22;11875;49.356;2.718;2022-11-30T17:36:53;9.30;99.90